Drobaksund III — LKJO — position and weather

sailwx.info

Track history (hours):
 
Tides and Currents Weather Stations Pressure Air Temp Water Temp Dewpoint Dewpoint Depression Visibility Wind Speed Wind Dir Waves Ship Positions

Drobaksund III

Last reported at 2014-Sep-12 06:31 UTC. Time now 2014-Oct-02 12:33 UTC.
Position N 37°34' W 000°58'.
Warning: this ship's position is 20 days out of date.

Length 57 m; draft 3 m.

Type: Ship (hazmat cat A). MMSI: 257235400.

Date/timePositionNaut miles runAvg speedWind from/ knotsBaromVisibWave heightAir tempDewpointWater temp
2014-Sep-12 06:31N 37°34' W 000°58'0 0.0
2014-Sep-12 05:32N 37°34' W 000°58'0 0.0
2014-Sep-12 02:22N 37°34' W 000°58'0 0.0
2014-Sep-11 22:16N 37°34' W 000°58'0 0.0
2014-Sep-11 19:29N 37°34' W 000°58'0 0.0
2014-Sep-11 17:31N 37°34' W 000°58'0 0.0
2014-Sep-11 16:31N 37°34' W 000°58'0 0.0
2014-Sep-11 14:27N 37°34' W 000°58'0 0.0
2014-Sep-11 13:28N 37°34' W 000°58'0 0.0
2014-Sep-11 12:28N 37°34' W 000°58'0 0.0
2014-Sep-11 11:29N 37°34' W 000°58'0 0.0
2014-Sep-11 08:08N 37°34' W 000°58'0 0.0
2014-Sep-11 07:26N 37°34' W 000°58'0 0.0
2014-Sep-11 06:32N 37°34' W 000°58'0 0.0
2014-Sep-11 05:32N 37°34' W 000°58'0 0.0
2014-Sep-11 01:06N 37°34' W 000°58'0 0.0
2014-Sep-11 00:30N 37°34' W 000°58'0 0.0
2014-Sep-10 12:17N 37°34' W 000°58'0 0.0
2014-Sep-10 08:08N 37°34' W 000°58'0 0.0
2014-Sep-10 07:33N 37°34' W 000°58'12 0.8
2014-Sep-09 16:32N 37°21' W 000°59'1 0.7
2014-Sep-09 15:19N 37°22' W 000°58'2 2.1
2014-Sep-09 14:33N 37°24' W 000°58'9 1.2
2014-Sep-09 07:27N 37°32' W 000°55'0 0.3
2014-Sep-09 06:33N 37°32' W 000°55'2 2.3
2014-Sep-09 05:30N 37°30' W 000°57'4 0.4
2014-Sep-08 20:30N 37°27' W 000°60'0 0.3
2014-Sep-08 19:33N 37°27' W 000°60'0 0.3
2014-Sep-08 18:13N 37°27' W 001°00'225 7.5
2014-Sep-07 12:20N 35°59' W 005°19'  
Track history (hours):
 
Tides and Currents Weather Stations Pressure Air Temp Water Temp Dewpoint Dewpoint Depression Visibility Wind Speed Wind Dir Waves Ship Positions

Drobaksund III

Last reported at 2014-Sep-12 06:31 UTC. Time now 2014-Oct-02 12:33 UTC.
Position N 37°34' W 000°58'.
Warning: this ship's position is 20 days out of date.

Length 57 m; draft 3 m.

Type: Ship (hazmat cat A). MMSI: 257235400.

Date/timePositionNaut miles runAvg speedWind from/ knotsBaromVisibWave heightAir tempDewpointWater temp
2014-Sep-12 06:31N 37°34' W 000°58'0 0.0
2014-Sep-12 05:32N 37°34' W 000°58'0 0.0
2014-Sep-12 02:22N 37°34' W 000°58'0 0.0
2014-Sep-11 22:16N 37°34' W 000°58'0 0.0
2014-Sep-11 19:29N 37°34' W 000°58'0 0.0
2014-Sep-11 17:31N 37°34' W 000°58'0 0.0
2014-Sep-11 16:31N 37°34' W 000°58'0 0.0
2014-Sep-11 14:27N 37°34' W 000°58'0 0.0
2014-Sep-11 13:28N 37°34' W 000°58'0 0.0
2014-Sep-11 12:28N 37°34' W 000°58'0 0.0
2014-Sep-11 11:29N 37°34' W 000°58'0 0.0
2014-Sep-11 08:08N 37°34' W 000°58'0 0.0
2014-Sep-11 07:26N 37°34' W 000°58'0 0.0
2014-Sep-11 06:32N 37°34' W 000°58'0 0.0
2014-Sep-11 05:32N 37°34' W 000°58'0 0.0
2014-Sep-11 01:06N 37°34' W 000°58'0 0.0
2014-Sep-11 00:30N 37°34' W 000°58'0 0.0
2014-Sep-10 12:17N 37°34' W 000°58'0 0.0
2014-Sep-10 08:08N 37°34' W 000°58'0 0.0
2014-Sep-10 07:33N 37°34' W 000°58'12 0.8
2014-Sep-09 16:32N 37°21' W 000°59'1 0.7
2014-Sep-09 15:19N 37°22' W 000°58'2 2.1
2014-Sep-09 14:33N 37°24' W 000°58'9 1.2
2014-Sep-09 07:27N 37°32' W 000°55'0 0.3
2014-Sep-09 06:33N 37°32' W 000°55'2 2.3
2014-Sep-09 05:30N 37°30' W 000°57'4 0.4
2014-Sep-08 20:30N 37°27' W 000°60'0 0.3
2014-Sep-08 19:33N 37°27' W 000°60'0 0.3
2014-Sep-08 18:13N 37°27' W 001°00'225 7.5
2014-Sep-07 12:20N 35°59' W 005°19'  

Dump ship's entire track history